createdAt,value
2018-09-27T00:00:15.175Z,0.20
2018-09-27T00:01:15.170Z,0.20
2018-09-27T00:02:15.164Z,0.20
2018-09-27T00:03:15.156Z,0.20
2018-09-27T00:04:15.153Z,0.20
2018-09-27T00:05:15.148Z,0.20
2018-09-27T00:06:15.152Z,0.10
2018-09-27T00:07:15.133Z,0.20
2018-09-27T00:08:15.130Z,0.10
2018-09-27T00:09:15.123Z,0.10
2018-09-27T00:10:15.121Z,0.10
2018-09-27T00:11:15.112Z,0.10
2018-09-27T00:12:15.107Z,0.20
2018-09-27T00:13:15.099Z,0.10
2018-09-27T00:14:15.095Z,0.20
2018-09-27T00:15:15.091Z,0.10
2018-09-27T00:16:15.085Z,0.10
2018-09-27T00:17:15.079Z,0.20
2018-09-27T00:18:15.069Z,0.20
2018-09-27T00:19:15.071Z,0.10
2018-09-27T00:20:15.064Z,0.20
2018-09-27T00:21:15.052Z,0.10
2018-09-27T00:22:15.049Z,0.10
2018-09-27T00:23:15.040Z,0.10
2018-09-27T00:24:15.038Z,0.10
2018-09-27T00:25:15.030Z,0.10
2018-09-27T00:26:15.025Z,0.20
2018-09-27T00:27:15.016Z,0.10
2018-09-27T00:28:15.011Z,0.20
2018-09-27T00:29:15.018Z,0.20
2018-09-27T00:30:15.000Z,0.20
2018-09-27T00:31:14.994Z,0.20
2018-09-27T00:32:14.988Z,0.10
2018-09-27T00:33:14.985Z,0.20
2018-09-27T00:34:14.976Z,0.10
2018-09-27T00:35:14.972Z,0.10
2018-09-27T00:36:14.963Z,0.10
2018-09-27T00:37:14.961Z,0.10
2018-09-27T00:38:14.956Z,0.10
2018-09-27T00:39:14.949Z,0.10
2018-09-27T00:40:14.938Z,0.10
2018-09-27T00:41:14.932Z,0.10
2018-09-27T00:42:14.927Z,0.10
2018-09-27T00:43:14.922Z,0.20
2018-09-27T00:44:14.916Z,0.20
2018-09-27T00:45:14.908Z,0.10
2018-09-27T00:46:14.905Z,0.10
2018-09-27T00:47:14.895Z,0.10
2018-09-27T00:48:14.893Z,0.10
2018-09-27T00:49:14.886Z,0.10
2018-09-27T00:50:14.876Z,0.20
2018-09-27T00:51:14.916Z,0.10
2018-09-27T00:52:14.859Z,0.10
2018-09-27T00:53:14.862Z,0.10
2018-09-27T00:54:14.853Z,0.10
2018-09-27T00:55:14.850Z,0.20
2018-09-27T00:56:14.844Z,0.10
2018-09-27T00:57:14.838Z,0.20
2018-09-27T00:58:14.831Z,0.20
2018-09-27T00:59:14.829Z,0.20
2018-09-27T01:00:14.821Z,0.10
2018-09-27T01:01:14.838Z,0.10
2018-09-27T01:02:14.844Z,0.20
2018-09-27T01:03:14.797Z,0.20
2018-09-27T01:04:14.801Z,0.20
2018-09-27T01:05:14.791Z,0.20
2018-09-27T01:06:14.782Z,0.20
2018-09-27T01:07:14.776Z,0.30
2018-09-27T01:08:14.771Z,0.20
2018-09-27T01:09:14.804Z,0.30
2018-09-27T01:10:14.757Z,0.20
2018-09-27T01:11:14.749Z,0.10
2018-09-27T01:12:14.745Z,0.20
2018-09-27T01:13:14.741Z,0.20
2018-09-27T01:14:14.734Z,0.10
2018-09-27T01:15:14.730Z,0.20
2018-09-27T01:16:14.722Z,0.20
2018-09-27T01:17:14.759Z,0.10
2018-09-27T01:18:14.706Z,0.20
2018-09-27T01:19:14.701Z,0.20
2018-09-27T01:20:14.698Z,0.10
2018-09-27T01:21:14.692Z,0.20
2018-09-27T01:22:14.685Z,0.10
2018-09-27T01:23:14.681Z,0.20
2018-09-27T01:24:14.675Z,0.10
2018-09-27T01:25:14.666Z,0.10
2018-09-27T01:26:14.666Z,0.20
2018-09-27T01:27:14.658Z,0.10
2018-09-27T01:28:14.649Z,0.20
2018-09-27T01:29:14.676Z,0.20
2018-09-27T02:06:55.693Z,0.10
2018-09-27T02:07:55.646Z,0.10
2018-09-27T02:09:48.552Z,0.10
2018-09-27T02:10:48.530Z,0.10
2018-09-27T02:12:41.457Z,0.10
2018-09-27T02:13:41.441Z,0.10
2018-09-27T02:15:34.363Z,0.20
2018-09-27T02:16:34.329Z,0.20
2018-09-27T02:18:27.262Z,0.10
2018-09-27T02:19:27.222Z,0.20
2018-09-27T02:21:20.150Z,0.10
2018-09-27T02:22:20.135Z,0.20
2018-09-27T02:24:13.078Z,0.20
2018-09-27T02:25:13.052Z,0.10
2018-09-27T02:27:05.977Z,0.10
2018-09-27T02:28:05.959Z,0.20
2018-09-27T02:29:58.911Z,0.20
2018-09-27T02:30:58.883Z,0.20
2018-09-27T02:32:51.827Z,0.20
2018-09-27T02:33:51.813Z,0.20
2018-09-27T02:35:44.739Z,0.20
2018-09-27T02:36:44.707Z,0.10
2018-09-27T02:38:37.655Z,0.10
2018-09-27T02:39:37.642Z,0.20
2018-09-27T02:41:30.536Z,0.20
2018-09-27T02:42:30.515Z,0.20
2018-09-27T02:44:23.472Z,0.10
2018-09-27T02:45:23.428Z,0.20
2018-09-27T02:47:16.326Z,0.20
2018-09-27T02:48:16.307Z,0.10
2018-09-27T02:50:09.271Z,0.10
2018-09-27T02:51:09.248Z,0.20
2018-09-27T02:53:02.157Z,0.20
2018-09-27T02:54:02.148Z,0.20
2018-09-27T02:55:55.095Z,0.10
2018-09-27T02:56:55.051Z,0.20
2018-09-27T02:58:47.946Z,0.10
2018-09-27T02:59:47.933Z,0.20
2018-09-27T03:01:40.884Z,0.10
2018-09-27T03:02:40.858Z,0.10
2018-09-27T03:04:33.762Z,0.20
2018-09-27T03:05:33.741Z,0.20
2018-09-27T03:07:26.669Z,0.20
2018-09-27T03:08:26.653Z,0.20
2018-09-27T03:10:19.575Z,0.20
2018-09-27T03:11:19.550Z,0.20
2018-09-27T03:13:12.513Z,0.30
2018-09-27T03:14:12.503Z,0.20
2018-09-27T03:16:05.431Z,0.20
2018-09-27T03:17:05.407Z,0.20
2018-09-27T03:18:58.322Z,0.20
2018-09-27T03:19:58.313Z,0.20
2018-09-27T03:21:51.256Z,0.20
2018-09-27T03:22:51.232Z,0.10
2018-09-27T03:24:44.143Z,0.20
2018-09-27T03:25:44.111Z,0.20
2018-09-27T03:27:37.048Z,0.20
2018-09-27T03:28:37.026Z,0.20
2018-09-27T03:30:29.950Z,0.20
2018-09-27T03:31:29.927Z,0.10
2018-09-27T03:33:22.860Z,0.20
2018-09-27T03:34:22.848Z,0.10
2018-09-27T03:36:15.756Z,0.20
2018-09-27T03:37:15.728Z,0.10
2018-09-27T03:39:08.646Z,0.20
2018-09-27T03:40:08.651Z,0.20
2018-09-27T03:42:01.559Z,0.20
2018-09-27T03:43:01.531Z,0.20
2018-09-27T03:44:54.469Z,0.20
2018-09-27T03:45:54.467Z,0.10
2018-09-27T03:47:47.359Z,0.20
2018-09-27T03:48:47.339Z,0.20
2018-09-27T03:50:40.273Z,0.10
2018-09-27T03:51:40.248Z,0.10
2018-09-27T03:53:33.172Z,0.20
2018-09-27T03:54:33.149Z,0.20
2018-09-27T03:56:26.121Z,0.20
2018-09-27T03:57:26.062Z,0.20
2018-09-27T03:59:19.024Z,0.20
2018-09-27T04:00:19.012Z,0.10
2018-09-27T04:02:11.936Z,0.10
2018-09-27T04:03:11.935Z,0.10
2018-09-27T04:05:04.835Z,0.20
2018-09-27T04:06:04.826Z,0.10
2018-09-27T04:07:57.732Z,0.20
2018-09-27T04:08:57.706Z,0.10
2018-09-27T04:10:50.646Z,0.10
2018-09-27T04:11:50.619Z,0.10
2018-09-27T04:13:43.551Z,0.20
2018-09-27T04:14:43.524Z,0.20
2018-09-27T04:16:36.456Z,0.10
2018-09-27T04:17:36.432Z,0.20
2018-09-27T04:19:29.336Z,0.10
2018-09-27T04:20:29.322Z,0.20
2018-09-27T04:22:22.256Z,0.10
2018-09-27T04:23:22.237Z,0.10
2018-09-27T04:25:15.143Z,0.10
2018-09-27T04:26:15.137Z,0.20
2018-09-27T04:28:08.071Z,0.20
2018-09-27T04:29:08.038Z,0.20
2018-09-27T04:31:00.957Z,0.10
2018-09-27T04:32:00.936Z,0.10
2018-09-27T04:33:53.920Z,0.20
2018-09-27T04:34:53.843Z,0.10
2018-09-27T04:36:46.769Z,0.10
2018-09-27T04:37:46.741Z,0.10
2018-09-27T04:39:39.733Z,0.20
2018-09-27T04:40:39.724Z,0.10
2018-09-27T04:42:32.598Z,0.10
2018-09-27T04:43:32.579Z,0.10
2018-09-27T04:45:25.512Z,0.10
2018-09-27T04:46:25.501Z,0.10
2018-09-27T04:48:18.436Z,0.10
2018-09-27T04:49:18.412Z,0.20
2018-09-27T04:51:11.355Z,0.10
2018-09-27T04:52:11.314Z,0.10
2018-09-27T04:54:04.242Z,0.10
2018-09-27T04:55:04.217Z,0.10
2018-09-27T04:56:57.143Z,0.20
2018-09-27T04:57:57.118Z,0.10
2018-09-27T04:59:50.066Z,0.10
2018-09-27T05:00:50.027Z,0.10
2018-09-27T05:02:42.953Z,0.10
2018-09-27T05:03:42.941Z,0.10
2018-09-27T05:05:35.838Z,0.00
2018-09-27T05:06:35.828Z,0.10
2018-09-27T05:08:28.758Z,0.10
2018-09-27T05:09:28.762Z,0.10
2018-09-27T05:11:21.632Z,0.20
2018-09-27T05:12:21.615Z,0.10
2018-09-27T05:14:14.511Z,0.10
2018-09-27T05:15:14.487Z,0.10
2018-09-27T05:17:07.408Z,0.10
2018-09-27T05:18:07.393Z,0.10
2018-09-27T05:20:00.308Z,0.10
2018-09-27T05:21:00.289Z,0.10
2018-09-27T05:22:53.218Z,0.20
2018-09-27T05:23:53.196Z,0.10
2018-09-27T05:24:53.187Z,0.10
2018-09-27T05:25:53.183Z,0.10
2018-09-27T05:26:53.185Z,0.20
2018-09-27T05:27:53.168Z,0.10
2018-09-27T05:28:53.163Z,0.10
2018-09-27T05:29:53.156Z,0.20
2018-09-27T05:30:53.151Z,0.10
2018-09-27T05:31:53.138Z,0.10
2018-09-27T05:32:53.138Z,0.10
2018-09-27T05:33:53.127Z,0.20
2018-09-27T05:34:53.123Z,0.20
2018-09-27T05:35:53.116Z,0.20
2018-09-27T05:36:53.111Z,0.20
2018-09-27T05:37:53.105Z,0.20
2018-09-27T05:38:53.111Z,0.20
2018-09-27T05:39:53.093Z,0.20
2018-09-27T05:40:53.087Z,0.10
2018-09-27T05:41:53.078Z,0.10
2018-09-27T05:42:53.074Z,0.10
2018-09-27T05:43:53.063Z,0.20
2018-09-27T05:44:53.050Z,0.20
2018-09-27T05:45:53.048Z,0.20
2018-09-27T05:46:53.054Z,0.10
2018-09-27T05:47:53.044Z,0.10
2018-09-27T05:48:53.034Z,0.10
2018-09-27T05:49:53.082Z,0.10
2018-09-27T05:50:53.019Z,0.20
2018-09-27T05:51:53.012Z,0.20
2018-09-27T05:52:53.008Z,0.10
2018-09-27T05:53:52.997Z,0.10
2018-09-27T05:54:52.997Z,0.10
2018-09-27T05:55:53.020Z,0.10
2018-09-27T05:56:52.987Z,0.10
2018-09-27T05:57:53.008Z,0.10
2018-09-27T05:58:52.972Z,0.10
2018-09-27T05:59:52.967Z,0.20
2018-09-27T06:00:52.964Z,0.20
2018-09-27T06:01:52.984Z,0.20
2018-09-27T06:02:52.949Z,0.20
2018-09-27T06:03:52.941Z,0.20
2018-09-27T06:04:52.937Z,0.20
2018-09-27T06:05:52.989Z,0.20
2018-09-27T06:06:52.934Z,0.20
2018-09-27T06:07:52.925Z,0.20
2018-09-27T06:08:52.919Z,0.30
2018-09-27T06:09:52.912Z,0.20
2018-09-27T06:10:52.907Z,0.30
2018-09-27T06:11:52.901Z,0.20
2018-09-27T06:12:52.899Z,0.20
2018-09-27T06:13:52.895Z,0.20
2018-09-27T06:14:52.884Z,0.20
2018-09-27T06:15:52.887Z,0.20
2018-09-27T06:16:52.880Z,0.20
2018-09-27T06:17:52.871Z,0.20
2018-09-27T06:18:52.868Z,0.20
2018-09-27T06:19:52.933Z,0.20
2018-09-27T06:20:52.858Z,0.20
2018-09-27T06:21:52.851Z,0.20
2018-09-27T06:22:52.851Z,0.20
2018-09-27T06:23:52.846Z,0.30
2018-09-27T06:24:52.845Z,0.30
2018-09-27T06:25:52.856Z,0.30
2018-09-27T06:26:52.831Z,0.30
2018-09-27T06:27:52.831Z,0.30
2018-09-27T06:28:52.825Z,0.30
2018-09-27T06:29:52.820Z,0.20
2018-09-27T06:30:52.816Z,0.20
2018-09-27T06:31:52.809Z,0.20
2018-09-27T06:32:52.803Z,0.20
2018-09-27T06:33:52.803Z,0.20
2018-09-27T06:34:52.840Z,0.20
2018-09-27T06:35:52.801Z,0.20
2018-09-27T06:36:52.796Z,0.10
2018-09-27T06:37:52.793Z,0.20
2018-09-27T06:38:52.789Z,0.20
2018-09-27T06:39:52.782Z,0.20
2018-09-27T06:40:52.785Z,0.20
2018-09-27T06:41:52.777Z,0.20
2018-09-27T06:42:52.772Z,0.30
2018-09-27T06:43:52.801Z,0.40
2018-09-27T06:44:52.768Z,0.30
2018-09-27T06:45:52.763Z,0.40
2018-09-27T06:46:52.760Z,0.30
2018-09-27T06:47:52.759Z,0.30
2018-09-27T06:48:52.819Z,0.30
2018-09-27T06:49:52.742Z,0.30
2018-09-27T06:50:52.749Z,0.30
2018-09-27T06:51:52.758Z,0.20
2018-09-27T06:52:52.751Z,0.20
2018-09-27T06:53:52.744Z,0.30
2018-09-27T06:54:52.894Z,0.30
2018-09-27T06:55:52.881Z,0.30
2018-09-27T06:56:52.779Z,0.30
2018-09-27T06:57:52.784Z,0.20
2018-09-27T06:58:52.734Z,0.20
2018-09-27T06:59:52.736Z,0.30
2018-09-27T07:00:52.789Z,0.30
2018-09-27T07:01:52.737Z,0.20
2018-09-27T07:02:52.741Z,0.30
2018-09-27T07:03:52.734Z,0.30
2018-09-27T07:04:52.781Z,0.20
2018-09-27T07:05:52.735Z,0.30
2018-09-27T07:06:52.737Z,0.30
2018-09-27T07:07:52.733Z,0.30
2018-09-27T07:08:52.738Z,0.20
2018-09-27T07:09:52.743Z,0.20
2018-09-27T07:10:52.737Z,0.20
2018-09-27T07:11:52.815Z,0.20
2018-09-27T07:12:52.753Z,0.20
2018-09-27T07:13:52.766Z,0.30
2018-09-27T07:14:52.749Z,0.30
2018-09-27T07:15:52.753Z,0.20
2018-09-27T07:16:52.751Z,0.20
2018-09-27T07:17:52.755Z,0.20
2018-09-27T07:18:52.824Z,0.20
2018-09-27T07:19:52.759Z,0.30
2018-09-27T07:20:52.763Z,0.30
2018-09-27T07:21:52.763Z,0.30
2018-09-27T07:22:52.767Z,0.30
2018-09-27T07:23:52.774Z,0.30
2018-09-27T07:24:52.774Z,0.30
2018-09-27T07:25:52.780Z,0.30
2018-09-27T07:26:52.815Z,0.20
2018-09-27T07:27:52.789Z,0.20
2018-09-27T07:28:52.793Z,0.30
2018-09-27T07:29:52.853Z,0.30
2018-09-27T07:30:52.800Z,0.20
2018-09-27T07:31:52.803Z,0.30
2018-09-27T07:32:52.808Z,0.20
2018-09-27T07:33:52.812Z,0.20
2018-09-27T07:34:52.814Z,0.20
2018-09-27T07:35:52.823Z,0.30
2018-09-27T07:36:52.843Z,0.20
2018-09-27T07:37:52.830Z,0.30
2018-09-27T07:38:52.842Z,0.20
2018-09-27T07:39:52.847Z,0.20
2018-09-27T07:40:52.849Z,0.20
2018-09-27T07:41:52.857Z,0.20
2018-09-27T07:42:52.896Z,0.20
2018-09-27T07:43:52.868Z,0.20
2018-09-27T07:44:52.871Z,0.30
2018-09-27T07:45:52.883Z,0.20
2018-09-27T07:46:52.886Z,0.20
2018-09-27T07:47:52.898Z,0.20
2018-09-27T07:48:52.906Z,0.20
2018-09-27T07:49:52.905Z,0.20
2018-09-27T07:50:52.916Z,0.20
2018-09-27T07:51:52.917Z,0.20
2018-09-27T07:52:52.926Z,0.20
2018-09-27T07:53:52.930Z,0.20
2018-09-27T07:54:53.004Z,0.20
2018-09-27T07:55:52.946Z,0.20
2018-09-27T07:56:52.953Z,0.20
2018-09-27T07:57:52.957Z,0.20
2018-09-27T07:58:52.969Z,0.20
2018-09-27T07:59:53.802Z,0.20
2018-09-27T08:00:52.978Z,0.20
2018-09-27T08:01:52.985Z,0.20
2018-09-27T08:02:53.156Z,0.30
2018-09-27T08:03:53.006Z,0.20
2018-09-27T08:04:53.017Z,0.20
2018-09-27T08:05:53.015Z,0.20
2018-09-27T08:06:53.027Z,0.20
2018-09-27T08:07:53.033Z,0.20
2018-09-27T08:08:53.040Z,0.20
2018-09-27T08:09:53.066Z,0.20
2018-09-27T08:10:53.107Z,0.20
2018-09-27T08:11:53.090Z,0.20
2018-09-27T08:12:53.069Z,0.20
2018-09-27T08:13:53.074Z,0.20
2018-09-27T08:14:53.083Z,0.20
2018-09-27T08:15:53.091Z,0.20
2018-09-27T08:16:53.126Z,0.20
2018-09-27T08:17:53.109Z,0.30
2018-09-27T08:18:53.116Z,0.30
2018-09-27T08:19:53.123Z,0.30
2018-09-27T08:20:53.183Z,0.30
2018-09-27T08:21:53.144Z,0.30
2018-09-27T08:22:53.149Z,0.20
2018-09-27T08:23:53.176Z,0.20
2018-09-27T08:24:53.165Z,0.30
2018-09-27T08:25:53.174Z,0.30
2018-09-27T08:26:53.182Z,0.20
2018-09-27T08:27:53.192Z,0.30
2018-09-27T08:28:53.201Z,0.30
2018-09-27T08:29:53.251Z,0.30
2018-09-27T08:30:53.358Z,0.30
2018-09-27T08:31:53.227Z,0.30
2018-09-27T08:32:53.236Z,0.30
2018-09-27T08:33:53.245Z,0.40
2018-09-27T08:34:53.252Z,0.30
2018-09-27T08:35:53.260Z,0.30
2018-09-27T08:36:53.280Z,0.40
2018-09-27T08:37:53.282Z,0.30
2018-09-27T08:38:53.291Z,0.30
2018-09-27T08:39:53.298Z,0.40
2018-09-27T08:40:53.313Z,0.30
2018-09-27T08:41:53.320Z,0.40
2018-09-27T08:42:53.330Z,0.40
2018-09-27T08:43:53.353Z,0.40
2018-09-27T08:44:53.540Z,0.40
2018-09-27T08:45:53.432Z,0.40
2018-09-27T08:46:53.370Z,0.40
2018-09-27T08:47:53.380Z,0.40
2018-09-27T08:48:53.390Z,0.30
2018-09-27T08:49:53.415Z,0.40
2018-09-27T08:50:53.442Z,0.40
2018-09-27T08:51:53.417Z,0.50
2018-09-27T08:52:53.432Z,0.40
2018-09-27T08:53:53.440Z,0.50
2018-09-27T08:54:53.449Z,0.50
2018-09-27T08:55:53.502Z,0.50
2018-09-27T08:56:53.467Z,0.50
2018-09-27T08:57:53.477Z,0.50
2018-09-27T08:58:53.492Z,0.40
2018-09-27T08:59:53.503Z,0.50
2018-09-27T09:00:53.518Z,0.50
2018-09-27T09:01:53.520Z,0.60
2018-09-27T09:02:53.531Z,0.50
2018-09-27T09:03:53.625Z,0.50
2018-09-27T09:04:53.554Z,0.50
2018-09-27T09:05:53.566Z,0.50
2018-09-27T09:06:53.581Z,0.50
2018-09-27T09:07:53.588Z,0.60
2018-09-27T09:08:53.601Z,0.50
2018-09-27T09:09:53.610Z,0.60
2018-09-27T09:10:53.621Z,0.50
2018-09-27T09:11:53.664Z,0.50
2018-09-27T09:12:53.643Z,0.60
2018-09-27T09:13:53.660Z,0.60
2018-09-27T09:14:53.670Z,0.70
2018-09-27T09:15:53.678Z,0.60
2018-09-27T09:16:53.695Z,0.60
2018-09-27T09:17:53.699Z,0.70
2018-09-27T09:18:53.713Z,0.60
2018-09-27T09:19:53.723Z,0.60
2018-09-27T09:20:53.739Z,0.60
2018-09-27T09:21:53.748Z,0.70
2018-09-27T09:22:53.763Z,0.60
2018-09-27T09:23:53.775Z,0.70
2018-09-27T09:24:53.801Z,0.70
2018-09-27T09:25:53.828Z,0.70
2018-09-27T09:26:53.806Z,0.70
2018-09-27T09:27:53.826Z,0.80
2018-09-27T09:28:53.830Z,0.60
2018-09-27T09:29:53.888Z,0.70
2018-09-27T09:30:53.857Z,0.80
2018-09-27T09:31:53.870Z,0.80
2018-09-27T09:32:53.886Z,0.80
2018-09-27T09:33:53.890Z,0.80
2018-09-27T09:34:53.906Z,0.80
2018-09-27T09:35:53.921Z,0.90
2018-09-27T09:36:53.929Z,0.80
2018-09-27T09:37:53.946Z,0.90
2018-09-27T09:38:53.962Z,1.00
2018-09-27T09:39:53.965Z,0.90
2018-09-27T09:40:53.981Z,0.80
2018-09-27T09:41:53.990Z,0.80
2018-09-27T09:42:54.000Z,0.90
2018-09-27T09:43:54.024Z,0.90
2018-09-27T09:44:54.026Z,0.90
2018-09-27T09:45:54.037Z,1.00
2018-09-27T09:46:54.056Z,0.70
2018-09-27T09:47:54.063Z,0.90
2018-09-27T09:48:54.079Z,0.80
2018-09-27T09:49:54.136Z,1.00
2018-09-27T09:50:54.104Z,1.00
2018-09-27T09:51:54.114Z,0.90
2018-09-27T09:52:54.126Z,0.90
2018-09-27T09:53:54.140Z,0.90
2018-09-27T09:54:54.186Z,0.90
2018-09-27T09:55:54.170Z,1.00
2018-09-27T09:56:54.179Z,1.00
2018-09-27T09:57:54.187Z,0.90
2018-09-27T09:58:54.206Z,1.00
2018-09-27T09:59:54.263Z,0.80
2018-09-27T10:00:54.229Z,1.00
2018-09-27T10:01:54.240Z,1.00
2018-09-27T10:02:54.250Z,1.00
2018-09-27T10:03:54.265Z,1.00
2018-09-27T10:04:54.277Z,1.00
2018-09-27T10:05:54.295Z,1.00
2018-09-27T10:06:54.313Z,1.10
2018-09-27T10:07:54.324Z,1.20
2018-09-27T10:08:54.395Z,1.30
2018-09-27T10:09:54.337Z,1.20
2018-09-27T10:10:54.356Z,1.00
2018-09-27T10:11:54.369Z,1.10
2018-09-27T10:12:54.380Z,1.10
2018-09-27T10:13:54.392Z,1.20
2018-09-27T10:14:54.402Z,1.00
2018-09-27T10:15:54.419Z,1.10
2018-09-27T10:16:54.429Z,1.20
2018-09-27T10:17:54.440Z,0.90
2018-09-27T10:18:54.452Z,1.00
2018-09-27T10:19:54.462Z,1.20
2018-09-27T10:20:54.479Z,1.20
2018-09-27T10:21:54.546Z,1.20
2018-09-27T10:22:54.516Z,1.20
2018-09-27T10:23:54.509Z,1.10
2018-09-27T10:24:54.526Z,0.90
2018-09-27T10:25:54.534Z,1.10
2018-09-27T10:26:54.569Z,1.00
2018-09-27T10:27:54.561Z,1.10
2018-09-27T10:28:54.574Z,1.20
2018-09-27T10:29:54.586Z,1.00
2018-09-27T10:30:54.602Z,1.00
2018-09-27T10:31:54.618Z,1.00
2018-09-27T10:32:54.623Z,1.20
2018-09-27T10:33:54.634Z,1.10
2018-09-27T10:34:54.650Z,1.00
2018-09-27T10:35:54.660Z,0.90
2018-09-27T10:36:54.671Z,1.20
2018-09-27T10:37:54.684Z,1.00
2018-09-27T10:38:54.695Z,1.10
2018-09-27T10:39:54.709Z,1.20
2018-09-27T10:40:54.720Z,1.00
2018-09-27T10:41:54.730Z,1.00
2018-09-27T10:42:54.747Z,0.90
2018-09-27T10:43:54.758Z,1.10
2018-09-27T10:44:54.797Z,0.90
2018-09-27T10:45:54.779Z,1.00
2018-09-27T10:46:54.796Z,0.90
2018-09-27T10:47:54.807Z,0.90
2018-09-27T10:48:54.819Z,1.00
2018-09-27T10:49:54.831Z,1.20
2018-09-27T10:50:54.843Z,1.00
2018-09-27T10:51:54.856Z,1.00
2018-09-27T10:52:54.866Z,0.80
2018-09-27T10:53:54.878Z,0.90
2018-09-27T10:54:54.895Z,1.00
2018-09-27T10:55:54.915Z,0.80
2018-09-27T10:56:54.913Z,0.90
2018-09-27T10:57:54.923Z,0.90
2018-09-27T10:58:54.938Z,1.00
2018-09-27T10:59:54.982Z,0.90
2018-09-27T11:00:54.963Z,0.90
2018-09-27T11:01:54.973Z,0.80
2018-09-27T11:02:54.985Z,0.80
2018-09-27T11:03:55.011Z,0.90
2018-09-27T11:04:55.007Z,0.90
2018-09-27T11:05:55.020Z,0.80
2018-09-27T11:06:55.028Z,0.80
2018-09-27T11:07:55.046Z,0.80
2018-09-27T11:08:55.056Z,0.80
2018-09-27T11:09:55.081Z,0.80
2018-09-27T11:10:55.115Z,0.90
2018-09-27T11:11:55.092Z,0.90
2018-09-27T11:12:55.103Z,0.90
2018-09-27T11:13:55.114Z,0.80
2018-09-27T11:14:55.125Z,0.90
2018-09-27T11:15:55.139Z,0.80
2018-09-27T11:16:55.151Z,1.00
2018-09-27T11:17:55.161Z,0.90
2018-09-27T11:18:55.175Z,0.90
2018-09-27T11:19:55.189Z,1.00
2018-09-27T11:20:55.246Z,0.90
2018-09-27T11:21:55.260Z,0.90
2018-09-27T11:22:55.231Z,0.80
2018-09-27T11:23:55.233Z,0.70
2018-09-27T11:24:55.246Z,0.90
2018-09-27T11:25:55.255Z,0.70
2018-09-27T11:26:55.268Z,0.80
2018-09-27T11:27:55.275Z,0.80
2018-09-27T11:28:55.299Z,0.90
2018-09-27T11:29:55.300Z,0.80
2018-09-27T11:30:55.314Z,0.70
2018-09-27T11:31:55.327Z,0.70
2018-09-27T11:32:55.341Z,0.80
2018-09-27T11:33:55.349Z,0.90
2018-09-27T11:34:55.366Z,0.80
2018-09-27T11:35:55.373Z,0.90
2018-09-27T11:36:55.383Z,0.90
2018-09-27T11:37:55.395Z,0.90
2018-09-27T11:38:55.406Z,0.80
2018-09-27T11:39:55.422Z,0.80
2018-09-27T11:40:55.430Z,0.80
2018-09-27T11:41:55.449Z,0.70
2018-09-27T11:42:55.521Z,0.80
2018-09-27T11:43:55.469Z,0.80
2018-09-27T11:44:55.479Z,0.80
2018-09-27T11:45:55.489Z,0.70
2018-09-27T11:46:55.589Z,0.70
2018-09-27T11:47:55.513Z,0.70
2018-09-27T11:48:55.597Z,0.70
2018-09-27T11:49:55.626Z,0.80
2018-09-27T11:50:55.547Z,0.80
2018-09-27T11:51:55.557Z,0.80
2018-09-27T11:52:55.584Z,0.60
2018-09-27T11:53:55.599Z,0.60
2018-09-27T11:54:55.609Z,0.70
2018-09-27T11:55:55.667Z,0.70
2018-09-27T11:56:55.615Z,0.60
2018-09-27T11:57:55.627Z,0.60
2018-09-27T11:58:55.675Z,0.70
2018-09-27T11:59:55.657Z,0.80
2018-09-27T12:00:55.663Z,0.60
2018-09-27T12:01:55.673Z,0.60
2018-09-27T12:02:55.684Z,0.60
2018-09-27T12:03:55.704Z,0.70
2018-09-27T12:04:55.716Z,0.70
2018-09-27T12:05:55.739Z,0.70
2018-09-27T12:06:55.732Z,0.70
2018-09-27T12:07:55.748Z,0.70
2018-09-27T12:08:55.759Z,0.70
2018-09-27T12:09:55.767Z,0.60
2018-09-27T12:10:55.777Z,0.60
2018-09-27T12:11:55.800Z,0.70
2018-09-27T12:12:55.823Z,0.70
2018-09-27T12:13:55.831Z,0.60
2018-09-27T12:14:55.824Z,0.60
2018-09-27T12:15:55.870Z,0.60
2018-09-27T12:16:55.849Z,0.60
2018-09-27T12:17:55.858Z,0.70
2018-09-27T12:18:55.883Z,0.50
2018-09-27T12:19:55.887Z,0.30
2018-09-27T12:20:55.890Z,0.20
2018-09-27T12:21:55.891Z,0.20
2018-09-27T12:22:55.912Z,0.10
2018-09-27T12:23:55.913Z,0.20
2018-09-27T12:24:55.919Z,0.20
2018-09-27T12:25:55.921Z,0.20
2018-09-27T12:26:55.929Z,0.10
2018-09-27T12:27:55.933Z,0.20
2018-09-27T12:28:55.939Z,0.10
2018-09-27T12:29:55.942Z,0.10
2018-09-27T12:30:56.007Z,0.10
2018-09-27T12:31:55.965Z,0.10
2018-09-27T12:32:56.300Z,0.10
2018-09-27T12:33:55.976Z,0.00
2018-09-27T12:34:55.971Z,0.10
2018-09-27T12:35:55.973Z,0.00
2018-09-27T12:36:55.977Z,0.10
2018-09-27T12:37:55.980Z,0.10
2018-09-27T12:38:56.056Z,0.10
2018-09-27T12:39:55.991Z,0.10
2018-09-27T12:40:55.993Z,0.10
2018-09-27T12:41:56.092Z,0.10
2018-09-27T12:42:56.004Z,0.10
2018-09-27T12:43:56.010Z,0.10
2018-09-27T12:44:56.024Z,0.00
2018-09-27T12:45:56.021Z,0.10
2018-09-27T12:46:56.061Z,0.10
2018-09-27T12:47:56.025Z,0.10
2018-09-27T12:48:56.020Z,0.10
2018-09-27T12:49:56.019Z,0.10
2018-09-27T12:50:56.066Z,0.10
2018-09-27T12:51:56.089Z,0.10
2018-09-27T12:52:56.117Z,0.10
2018-09-27T12:53:56.019Z,0.10
2018-09-27T12:54:56.024Z,0.10
2018-09-27T12:55:56.080Z,0.10
2018-09-27T12:56:56.032Z,0.10
2018-09-27T12:57:56.033Z,0.10
2018-09-27T12:58:56.031Z,0.10
2018-09-27T12:59:56.028Z,0.10
2018-09-27T13:00:56.074Z,0.10
2018-09-27T13:01:56.154Z,0.10
2018-09-27T13:02:56.107Z,0.10
2018-09-27T13:03:56.061Z,0.10
2018-09-27T13:04:56.031Z,0.00
2018-09-27T13:05:56.034Z,0.10
2018-09-27T13:06:56.053Z,0.10
2018-09-27T13:07:56.032Z,0.10
2018-09-27T13:08:56.055Z,0.10
2018-09-27T13:09:56.207Z,0.10
2018-09-27T13:10:56.037Z,0.10
2018-09-27T13:11:56.099Z,0.10
2018-09-27T13:12:56.110Z,0.10
2018-09-27T13:13:56.034Z,0.10
2018-09-27T13:14:56.092Z,0.10
2018-09-27T13:15:56.095Z,0.10
2018-09-27T13:16:56.035Z,0.10
2018-09-27T13:17:56.034Z,0.10
2018-09-27T13:18:57.941Z,0.10
2018-09-27T13:19:56.166Z,0.10
2018-09-27T13:20:56.036Z,0.10
2018-09-27T13:21:56.035Z,0.10
2018-09-27T13:22:56.061Z,0.10
2018-09-27T13:23:56.037Z,0.10
2018-09-27T13:24:56.147Z,0.10
2018-09-27T13:25:56.043Z,0.10
2018-09-27T13:26:56.054Z,0.10
2018-09-27T13:27:56.041Z,0.10
2018-09-27T13:28:56.043Z,0.10
2018-09-27T13:29:56.037Z,0.10
2018-09-27T13:30:56.044Z,0.10
2018-09-27T13:31:56.118Z,0.10
2018-09-27T13:32:56.046Z,0.10
2018-09-27T13:33:56.084Z,0.10
2018-09-27T13:34:56.041Z,0.10
2018-09-27T13:35:56.040Z,0.10
2018-09-27T13:36:56.090Z,0.10
2018-09-27T13:37:56.036Z,0.10
2018-09-27T13:38:56.093Z,0.10
2018-09-27T13:39:56.097Z,0.00
2018-09-27T13:40:56.040Z,0.10
2018-09-27T13:41:56.042Z,0.10
2018-09-27T13:42:56.081Z,0.10
2018-09-27T13:43:56.041Z,0.10
2018-09-27T13:44:56.072Z,0.10
2018-09-27T13:45:56.037Z,0.10
2018-09-27T13:46:56.043Z,0.10
2018-09-27T13:47:56.037Z,0.10
2018-09-27T13:48:56.044Z,0.10
2018-09-27T13:49:56.035Z,0.10
2018-09-27T13:50:56.080Z,0.10
2018-09-27T13:51:56.039Z,0.10
2018-09-27T13:52:56.036Z,0.10
2018-09-27T13:53:56.042Z,0.10
2018-09-27T13:54:56.056Z,0.10
2018-09-27T13:55:56.035Z,0.10
2018-09-27T13:56:56.122Z,0.10
2018-09-27T13:57:56.039Z,0.10
2018-09-27T13:58:56.037Z,0.10
2018-09-27T13:59:56.036Z,0.10
2018-09-27T14:00:56.051Z,0.10
2018-09-27T14:01:56.036Z,0.10
2018-09-27T14:02:56.034Z,0.10
2018-09-27T14:03:56.037Z,0.10
2018-09-27T14:04:56.037Z,0.10
2018-09-27T14:05:56.035Z,0.10
2018-09-27T14:06:56.032Z,0.10
2018-09-27T14:07:56.036Z,0.10
2018-09-27T14:08:56.031Z,0.10
2018-09-27T14:09:56.031Z,0.10
2018-09-27T14:10:56.030Z,0.10
2018-09-27T14:11:56.033Z,0.10
2018-09-27T14:12:56.028Z,0.10
2018-09-27T14:13:56.034Z,0.10
2018-09-27T14:14:56.031Z,0.10
2018-09-27T14:15:56.030Z,0.10
2018-09-27T14:16:56.055Z,0.10
2018-09-27T14:17:56.031Z,0.10
2018-09-27T14:18:56.033Z,0.10
2018-09-27T14:19:56.028Z,0.10
2018-09-27T14:20:56.029Z,0.10
2018-09-27T14:21:56.027Z,0.10
2018-09-27T14:22:56.035Z,0.10
2018-09-27T14:23:56.026Z,0.00
2018-09-27T14:24:56.061Z,0.10
2018-09-27T14:25:56.027Z,0.10
2018-09-27T14:26:56.032Z,0.10
2018-09-27T14:27:56.024Z,0.10
2018-09-27T14:28:56.028Z,0.10
2018-09-27T14:29:56.020Z,0.10
2018-09-27T14:30:56.061Z,0.10
2018-09-27T14:31:56.023Z,0.10
2018-09-27T14:32:56.148Z,0.10
2018-09-27T14:33:56.021Z,0.10
2018-09-27T14:34:56.023Z,0.10
2018-09-27T14:35:56.020Z,0.10
2018-09-27T14:36:56.026Z,0.00
2018-09-27T14:37:56.018Z,0.10
2018-09-27T14:38:56.020Z,0.10
2018-09-27T14:39:56.026Z,0.10
2018-09-27T14:40:56.027Z,0.00
2018-09-27T14:41:56.021Z,0.10
2018-09-27T14:42:56.023Z,0.10
2018-09-27T14:43:56.016Z,0.10
2018-09-27T14:44:56.018Z,0.10
2018-09-27T14:45:56.020Z,0.10
2018-09-27T14:46:56.020Z,0.10
2018-09-27T14:47:56.120Z,0.10
2018-09-27T14:48:56.019Z,0.10
2018-09-27T14:49:56.015Z,0.10
2018-09-27T14:50:56.016Z,0.10
2018-09-27T14:51:56.022Z,0.10
2018-09-27T14:52:56.020Z,0.10
2018-09-27T14:53:56.082Z,0.10
2018-09-27T14:54:56.070Z,0.10